createdAt,value
2022-12-27T00:05:26.352Z,2.00
2022-12-27T00:12:27.960Z,1.48
2022-12-27T00:19:29.615Z,2.13
2022-12-27T00:26:32.612Z,1.90
2022-12-27T00:33:35.382Z,1.98
2022-12-27T00:40:39.762Z,2.40
2022-12-27T00:47:41.413Z,2.55
2022-12-27T00:54:43.010Z,1.70
2022-12-27T01:01:45.404Z,2.15
2022-12-27T01:08:47.325Z,1.80
2022-12-27T01:15:48.984Z,3.58
2022-12-27T01:22:50.637Z,1.63
2022-12-27T01:29:52.315Z,1.65
2022-12-27T01:36:54.009Z,1.83
2022-12-27T01:43:55.624Z,2.10
2022-12-27T01:51:00.045Z,1.88
2022-12-27T01:58:22.452Z,2.10
2022-12-27T02:05:24.808Z,2.15
2022-12-27T02:12:26.530Z,2.20
2022-12-27T02:19:51.430Z,1.50
2022-12-27T02:27:13.723Z,1.92
2022-12-27T02:34:29.565Z,2.40
2022-12-27T02:41:51.262Z,1.77
2022-12-27T02:49:16.005Z,2.35
2022-12-27T02:56:58.377Z,2.17
2022-12-27T03:04:28.106Z,2.50
2022-12-27T03:11:51.334Z,1.83
2022-12-27T03:19:35.992Z,2.45
2022-12-27T03:26:38.070Z,2.50
2022-12-27T03:33:39.990Z,1.58
2022-12-27T03:41:16.387Z,1.50
2022-12-27T03:48:20.679Z,2.10
2022-12-27T03:55:22.380Z,2.55
2022-12-27T04:02:24.226Z,2.38
2022-12-27T04:09:44.419Z,1.58
2022-12-27T04:17:05.548Z,2.15
2022-12-27T04:24:25.735Z,2.15
2022-12-27T04:31:46.104Z,1.87
2022-12-27T04:38:48.019Z,2.60
2022-12-27T04:46:10.719Z,2.22
2022-12-27T04:53:32.646Z,2.40
2022-12-27T05:00:52.913Z,2.20
2022-12-27T05:08:13.185Z,2.75
2022-12-27T05:15:14.962Z,2.63
2022-12-27T05:22:35.419Z,3.58
2022-12-27T05:29:37.141Z,2.63
2022-12-27T05:36:38.849Z,2.05
2022-12-27T05:43:40.874Z,1.80
2022-12-27T05:50:42.534Z,1.98
2022-12-27T05:57:47.369Z,2.00
2022-12-27T06:04:49.193Z,2.30
2022-12-27T06:11:50.903Z,2.40
2022-12-27T06:18:53.065Z,1.80
2022-12-27T06:25:54.838Z,1.92
2022-12-27T06:32:56.531Z,2.15
2022-12-27T06:39:58.253Z,2.30
2022-12-27T06:46:59.906Z,2.13
2022-12-27T06:54:01.569Z,2.50
2022-12-27T07:01:22.481Z,1.98
2022-12-27T07:08:24.321Z,2.13
2022-12-27T07:15:25.946Z,1.40
2022-12-27T07:22:27.842Z,2.03
2022-12-27T07:29:29.663Z,2.42
2022-12-27T07:36:37.805Z,2.67
2022-12-27T07:43:39.510Z,2.08
2022-12-27T07:50:41.178Z,2.30
2022-12-27T07:57:42.867Z,2.10
2022-12-27T08:04:44.530Z,2.28
2022-12-27T08:11:46.269Z,2.30
2022-12-27T08:18:48.171Z,2.05
2022-12-27T08:25:50.172Z,2.30
2022-12-27T08:32:51.849Z,2.40
2022-12-27T08:39:57.713Z,2.22
2022-12-27T08:47:04.432Z,2.08
2022-12-27T08:54:06.135Z,2.53
2022-12-27T09:01:08.201Z,2.72
2022-12-27T09:08:10.927Z,2.40
2022-12-27T09:15:12.765Z,2.17
2022-12-27T09:22:14.564Z,2.00
2022-12-27T09:29:16.191Z,1.98
2022-12-27T09:36:19.746Z,2.00
2022-12-27T09:43:27.486Z,2.58
2022-12-27T09:50:42.107Z,2.45
2022-12-27T09:57:44.300Z,2.28
2022-12-27T10:05:18.718Z,2.58
2022-12-27T10:12:38.357Z,3.20
2022-12-27T10:19:58.853Z,2.83
2022-12-27T10:27:00.513Z,2.65
2022-12-27T10:34:05.076Z,2.65
2022-12-27T10:41:22.161Z,2.03
2022-12-27T10:48:36.344Z,2.35
2022-12-27T10:55:49.221Z,3.10
2022-12-27T11:02:53.822Z,2.33
2022-12-27T11:10:23.356Z,1.90
2022-12-27T11:17:47.557Z,2.67
2022-12-27T11:24:50.449Z,2.47
2022-12-27T11:31:52.326Z,2.10
2022-12-27T11:38:54.041Z,3.00
2022-12-27T11:45:55.643Z,2.45
2022-12-27T11:53:26.494Z,3.08
2022-12-27T12:08:00.998Z,2.85
2022-12-27T12:15:42.915Z,2.67
2022-12-27T12:22:55.695Z,2.70
2022-12-27T12:30:36.410Z,3.30
2022-12-27T12:37:49.842Z,3.60
2022-12-27T12:44:54.360Z,2.38
2022-12-27T12:52:04.052Z,3.25
2022-12-27T12:59:34.563Z,3.40
2022-12-27T13:07:03.639Z,2.60
2022-12-27T13:14:27.608Z,2.80
2022-12-27T13:21:57.619Z,3.45
2022-12-27T13:29:15.873Z,2.70
2022-12-27T13:36:19.973Z,2.50
2022-12-27T13:43:30.618Z,3.80
2022-12-27T13:58:29.663Z,2.20
2022-12-27T14:06:01.845Z,2.75
2022-12-27T14:13:07.735Z,2.88
2022-12-27T14:20:36.218Z,2.58
2022-12-27T14:28:15.490Z,2.53
2022-12-27T14:35:28.627Z,2.63
2022-12-27T14:42:45.583Z,2.28
2022-12-27T14:50:05.420Z,3.53
2022-12-27T14:57:36.129Z,2.70
2022-12-27T15:04:55.528Z,3.05
2022-12-27T15:12:06.218Z,3.17
2022-12-27T15:26:34.646Z,3.13
2022-12-27T15:34:12.609Z,3.45
2022-12-27T15:41:31.979Z,2.42
2022-12-27T16:12:19.930Z,3.50
2022-12-27T16:27:37.879Z,3.17
2022-12-27T16:34:39.537Z,3.08
2022-12-27T16:41:50.149Z,3.22
2022-12-27T16:49:29.102Z,3.45
2022-12-27T16:56:38.751Z,2.95
2022-12-27T17:03:40.329Z,2.90
2022-12-27T17:10:41.845Z,2.55
2022-12-27T17:17:44.170Z,3.22
2022-12-27T17:24:46.299Z,3.67
2022-12-27T17:32:09.399Z,3.58
2022-12-27T17:39:20.303Z,3.03
2022-12-27T17:46:49.951Z,2.70
2022-12-27T17:54:11.320Z,3.45
2022-12-27T18:01:13.269Z,4.25
2022-12-27T18:08:36.075Z,4.55
2022-12-27T18:15:37.716Z,4.68
2022-12-27T18:22:39.377Z,3.88
2022-12-27T18:29:40.955Z,4.50
2022-12-27T18:36:47.463Z,3.65
2022-12-27T18:43:50.532Z,4.07
2022-12-27T18:50:52.868Z,3.72
2022-12-27T18:58:20.239Z,4.43
2022-12-27T19:05:25.311Z,4.25
2022-12-27T19:12:34.092Z,3.00
2022-12-27T19:19:35.800Z,5.47
2022-12-27T19:26:37.573Z,4.82
2022-12-27T19:33:39.258Z,4.07
2022-12-27T19:40:40.881Z,5.80
2022-12-27T19:47:42.515Z,5.25
2022-12-27T19:54:44.133Z,5.60
2022-12-27T20:01:45.978Z,5.10
2022-12-27T20:08:50.846Z,3.85
2022-12-27T20:15:53.592Z,4.72
2022-12-27T20:22:55.177Z,5.00
2022-12-27T20:29:56.934Z,4.38
2022-12-27T20:37:00.005Z,4.18
2022-12-27T20:44:01.669Z,4.57
2022-12-27T20:51:23.107Z,3.83
2022-12-27T20:58:24.709Z,4.07
2022-12-27T21:05:26.449Z,4.10
2022-12-27T21:12:28.115Z,3.70
2022-12-27T21:19:29.898Z,3.22
2022-12-27T21:26:33.877Z,3.47
2022-12-27T21:33:38.417Z,3.75
2022-12-27T21:40:40.197Z,3.33
2022-12-27T21:47:42.559Z,3.33
2022-12-27T21:54:44.261Z,3.85
2022-12-27T22:01:50.306Z,3.42
2022-12-27T22:08:58.491Z,4.28
2022-12-27T22:16:01.807Z,3.55
2022-12-27T22:23:03.624Z,3.08
2022-12-27T22:30:11.197Z,3.40
2022-12-27T22:37:12.878Z,3.28
2022-12-27T22:44:14.893Z,3.60
2022-12-27T22:51:18.083Z,3.20
2022-12-27T22:58:19.790Z,4.00
2022-12-27T23:05:21.453Z,3.30
2022-12-27T23:12:23.308Z,3.30
2022-12-27T23:19:25.660Z,2.70
2022-12-27T23:26:27.310Z,3.33
2022-12-27T23:33:28.996Z,3.55
2022-12-27T23:40:31.082Z,2.72
2022-12-27T23:47:32.814Z,2.90
2022-12-27T23:54:34.526Z,2.97
